createdAt,value
2023-03-13T00:00:20.899Z,94.90
2023-03-13T00:10:22.551Z,94.90
2023-03-13T00:30:26.633Z,94.80
2023-03-13T00:40:28.288Z,94.70
2023-03-13T00:50:29.907Z,94.60
2023-03-13T01:00:31.587Z,94.40
2023-03-13T01:10:33.239Z,94.30
2023-03-13T01:20:34.873Z,94.20
2023-03-13T01:30:36.637Z,94.00
2023-03-13T01:40:46.204Z,93.80
2023-03-13T01:50:47.950Z,93.80
2023-03-13T02:00:50.240Z,93.60
2023-03-13T02:10:58.786Z,93.60
2023-03-13T02:21:09.964Z,93.60
2023-03-13T02:31:12.291Z,93.50
2023-03-13T02:41:15.050Z,93.50
2023-03-13T02:51:29.261Z,93.40
2023-03-13T03:01:30.876Z,93.30
2023-03-13T03:11:32.577Z,93.30
2023-03-13T03:21:35.023Z,93.30
2023-03-13T03:31:36.702Z,93.30
2023-03-13T03:41:38.389Z,93.70
2023-03-13T03:51:40.590Z,94.00
2023-03-13T04:01:43.041Z,94.50
2023-03-13T04:21:46.751Z,95.40
2023-03-13T04:31:48.346Z,95.90
2023-03-13T04:41:49.962Z,96.20
2023-03-13T05:01:53.667Z,96.80
2023-03-13T05:18:44.853Z,97.50
2023-03-13T05:28:46.488Z,98.00
2023-03-13T05:38:48.156Z,98.50
2023-03-13T05:48:49.887Z,99.00
2023-03-13T05:58:51.545Z,99.30
2023-03-13T06:08:53.752Z,99.90
2023-03-13T06:22:17.086Z,99.90
2023-03-13T06:32:18.863Z,99.90
2023-03-13T06:42:20.503Z,99.90
2023-03-13T06:52:26.457Z,99.90
2023-03-13T07:02:33.203Z,99.90
2023-03-13T07:12:35.671Z,99.90
2023-03-13T07:22:38.021Z,99.90
2023-03-13T07:32:39.715Z,99.90
2023-03-13T07:42:42.195Z,99.90
2023-03-13T07:52:43.937Z,99.90
2023-03-13T08:12:47.709Z,99.90
2023-03-13T08:32:54.336Z,99.90
2023-03-13T08:42:55.990Z,99.90
2023-03-13T08:52:57.707Z,99.90
2023-03-13T09:02:59.399Z,99.90
2023-03-13T09:13:01.461Z,99.90
2023-03-13T09:33:05.308Z,99.90
2023-03-13T09:43:33.419Z,99.90
2023-03-13T09:53:44.116Z,99.90
2023-03-13T10:03:57.603Z,99.90
2023-03-13T10:14:05.785Z,99.90
2023-03-13T10:24:37.861Z,99.90
2023-03-13T10:35:00.554Z,99.90
2023-03-13T10:45:04.872Z,99.90
2023-03-13T10:55:10.561Z,99.90
2023-03-13T11:05:31.715Z,99.50
2023-03-13T11:15:45.736Z,98.40
2023-03-13T11:26:04.753Z,97.50
2023-03-13T11:36:29.078Z,97.30
2023-03-13T11:46:40.949Z,97.10
2023-03-13T11:56:51.510Z,96.60
2023-03-13T12:07:26.189Z,96.20
2023-03-13T12:27:44.777Z,94.50
2023-03-13T12:37:55.294Z,94.00
2023-03-13T12:48:23.371Z,93.30
2023-03-13T12:58:27.112Z,92.20
2023-03-13T13:08:52.247Z,91.20
2023-03-13T13:18:54.023Z,90.50
2023-03-13T13:28:58.028Z,89.30
2023-03-13T13:38:59.766Z,88.20
2023-03-13T13:49:07.847Z,88.00
2023-03-13T13:59:15.317Z,87.60
2023-03-13T14:09:54.715Z,86.50
2023-03-13T14:19:56.682Z,85.90
2023-03-13T14:30:03.926Z,81.70
2023-03-13T14:40:10.829Z,72.10
2023-03-13T14:50:14.929Z,59.40
2023-03-13T15:00:44.079Z,56.10
2023-03-13T15:10:46.556Z,53.00
2023-03-13T15:20:55.690Z,51.20
2023-03-13T15:30:57.417Z,49.40
2023-03-13T15:40:59.079Z,48.70
2023-03-13T15:51:04.039Z,50.00
2023-03-13T16:01:06.008Z,54.60
2023-03-13T16:11:07.921Z,56.00
2023-03-13T16:21:15.457Z,59.80
2023-03-13T16:31:25.621Z,62.30
2023-03-13T16:41:28.359Z,64.60
2023-03-13T16:51:30.657Z,66.50
2023-03-13T17:11:34.427Z,71.20
2023-03-13T17:21:36.744Z,75.70
2023-03-13T17:31:38.626Z,83.90
2023-03-13T17:41:40.697Z,91.20
2023-03-13T17:51:44.473Z,94.80
2023-03-13T18:01:46.177Z,96.50
2023-03-13T18:11:48.878Z,97.00
2023-03-13T18:21:53.140Z,98.20
2023-03-13T18:32:00.438Z,98.70
2023-03-13T18:42:02.254Z,99.10
2023-03-13T18:52:04.105Z,99.50
2023-03-13T19:02:11.739Z,99.90
2023-03-13T19:12:15.335Z,99.90
2023-03-13T19:22:17.010Z,99.90
2023-03-13T19:32:19.345Z,99.90
2023-03-13T19:42:21.022Z,99.90
2023-03-13T19:52:22.644Z,99.90
2023-03-13T20:02:24.375Z,99.90
2023-03-13T20:12:26.094Z,99.90
2023-03-13T20:22:27.801Z,99.90
2023-03-13T20:32:29.745Z,99.90
2023-03-13T20:42:31.397Z,99.90
2023-03-13T20:52:33.190Z,99.90
2023-03-13T21:02:34.846Z,99.90
2023-03-13T21:12:36.475Z,99.90
2023-03-13T21:22:42.871Z,99.90
2023-03-13T21:32:45.730Z,99.90
2023-03-13T21:42:47.430Z,99.90
2023-03-13T21:52:49.067Z,99.90
2023-03-13T22:02:50.673Z,99.90
2023-03-13T22:12:52.283Z,99.90
2023-03-13T22:22:54.081Z,99.90
2023-03-13T22:32:55.849Z,99.90
2023-03-13T22:42:57.520Z,99.90
2023-03-13T22:53:42.841Z,99.90
2023-03-13T23:03:44.938Z,99.90
2023-03-13T23:13:46.966Z,99.90
2023-03-13T23:23:48.852Z,99.90
2023-03-13T23:33:50.606Z,99.90
2023-03-13T23:43:52.280Z,99.90
2023-03-13T23:53:53.929Z,99.90
